Главная страница
METAR-TAF:

METAR-TAF

Аэропорты :

Витебск, Белоруссия

широта: 55-10N, долгота: 030-13E, высота над уровнем моря: 176 м

Текущие метеонаблюдения

Эта сводка был подготовлена 33 минут назад, в 15:00 UTC
Штиль
Температура 1°C
Влажность 59%
Давление 1019 hPa
Видимость: 8000 м

METAR: UMII 221500Z 00000MPS 8000 NSC 01/M06 Q1019 NOSIG

Время: 18:33 (15:33 UTC)

Прогноз

Эта сводка был подготовлена 1 час и 28 минут назад, в 14:05 UTC
Прогноз действительный с 22-го 15 UTC до 22-го 24 UTC
Ветер 2 Узел переменных направлений
Видимость 10 км и более
Рассеянная облачность на высоте 2000 фута
временами
С 22-го 15 UTC до 22-го 16 UTC
Видимость: 2000 м
Отдельные облака на высоте 500 фута
дымка
временами
С 22-го 16 UTC до 22-го 24 UTC
Видимость: 1000 м
Отдельные облака на высоте 300 фута
дымка

TAF: UMII 221405Z 2215/2224 VRB01MPS 9999 BKN020 TX02/2215Z TNM02/2224Z TEMPO 2215/2216 2000 BR SCT005 TEMPO 2216/2224 1000 BR SCT003

Метеонаблюдения и прогнозы для более 4000 аэропортов (сводки METAR и TAF).

Имеющиеся станции представлены на карте желтыми и красными точками.

Чтобы увидеть название станции, наведите на нее мышь.

Затем щелкните, чтобы увидеть метеонаблюдения и метеопрогнозы.

Управление картой: чтобы увеличить масштаб, щелкните зеленые кнопки с черным крестиком; чтобы уменьшить масштаб, щелкните зеленую кнопку с тире; для просмотра соседних карт щелкайте зеленые стрелки.


METAR-TAF: